Time;durP1;ratioP1;P1;durP2;ratioP2;P2;SDS_P1;SDS_P2;PMS_P1;PMS_P2;Temp;Humidity;BMP_temperature;BMP_pressure;BME280_temperature;BME280_humidity;BME280_pressure;Samples;Min_cycle;Max_cycle;Signal;HPM_P1;HPM_P2
2023/12/29 00:01:55;;;;;;;1.38;1.27;;;;;;;8.87;100.00;98546.56;4169410;28;20575;-50
2023/12/29 00:03:56;;;;;;;1.33;1.23;;;;;;;8.92;100.00;98538.47;4166425;28;20729;-50
2023/12/29 00:05:58;;;;;;;0.60;0.60;;;;;;;8.92;100.00;98541.22;4170996;28;20208;-50
2023/12/29 00:08:00;;;;;;;1.13;1.13;;;;;;;8.85;100.00;98532.31;4160372;28;20673;-50
2023/12/29 00:10:02;;;;;;;5.28;1.20;;;;;;;8.87;100.00;98532.91;4168633;28;20201;-50
2023/12/29 00:12:04;;;;;;;2.20;1.15;;;;;;;8.90;100.00;98538.72;4171387;28;20588;-51
2023/12/29 00:14:06;;;;;;;1.25;1.25;;;;;;;8.92;100.00;98541.22;4169873;28;20209;-50
2023/12/29 00:16:08;;;;;;;1.42;1.33;;;;;;;8.87;100.00;98535.63;4168118;28;20209;-51
2023/12/29 00:18:09;;;;;;;1.55;1.30;;;;;;;8.91;100.00;98536.84;4167400;28;20205;-50
2023/12/29 00:20:11;;;;;;;1.08;1.08;;;;;;;8.95;100.00;98530.66;4169414;28;20255;-50
2023/12/29 00:22:13;;;;;;;0.88;0.88;;;;;;;8.90;100.00;98535.19;4168810;28;20242;-50
2023/12/29 00:24:16;;;;;;;0.90;0.90;;;;;;;8.90;100.00;98532.44;4167977;28;20282;-51
2023/12/29 00:26:18;;;;;;;1.05;1.05;;;;;;;8.90;100.00;98538.72;4168018;28;20298;-51
2023/12/29 00:28:20;;;;;;;1.08;1.08;;;;;;;8.89;100.00;98538.97;4159314;28;20488;-49
2023/12/29 00:30:21;;;;;;;0.80;0.80;;;;;;;8.90;100.00;98524.25;4169878;28;20291;-50
2023/12/29 00:32:23;;;;;;;1.40;1.30;;;;;;;8.84;100.00;98525.22;4174814;28;20646;-52
2023/12/29 00:34:26;;;;;;;0.90;0.88;;;;;;;8.85;100.00;98515.97;4169177;28;20215;-49
2023/12/29 00:36:28;;;;;;;1.17;1.10;;;;;;;8.84;100.00;98530.66;4165252;28;20254;-50
2023/12/29 00:38:29;;;;;;;1.48;1.38;;;;;;;8.83;100.00;98529.00;4153063;28;20229;-50
2023/12/29 00:40:34;;;;;;;1.17;1.02;;;;;;;8.87;100.00;98530.19;4169685;28;20269;-50
2023/12/29 00:42:36;;;;;;;1.25;1.15;;;;;;;8.84;100.00;98526.06;4168053;28;20278;-50
2023/12/29 00:44:39;;;;;;;1.17;1.13;;;;;;;8.83;100.00;98531.75;4171733;28;20211;-50
2023/12/29 00:46:40;;;;;;;1.50;1.13;;;;;;;8.88;100.00;98512.78;4172751;28;20215;-50
2023/12/29 00:48:42;;;;;;;1.67;1.00;;;;;;;8.88;100.00;98515.50;4168777;28;20228;-50
2023/12/29 00:50:44;;;;;;;1.02;1.02;;;;;;;8.88;100.00;98515.50;4166662;28;20212;-50
2023/12/29 00:52:46;;;;;;;0.98;0.98;;;;;;;8.84;100.00;98506.13;4167326;28;20216;-50
2023/12/29 00:54:48;;;;;;;1.52;1.42;;;;;;;8.89;100.00;98506.25;4168764;28;20208;-50
2023/12/29 00:56:51;;;;;;;0.82;0.82;;;;;;;8.87;100.00;98508.34;4168562;28;20222;-49
2023/12/29 00:58:53;;;;;;;1.73;1.63;;;;;;;8.86;100.00;98509.44;4168324;28;20231;-50
2023/12/29 01:00:54;;;;;;;1.50;1.40;;;;;;;8.85;100.00;98503.16;4199933;28;20643;-50
2023/12/29 01:02:56;;;;;;;2.53;1.05;;;;;;;8.92;100.00;98517.50;4167412;28;20255;-50
2023/12/29 01:04:58;;;;;;;0.75;0.75;;;;;;;8.93;100.00;98521.03;4171212;28;20252;-51
2023/12/29 01:07:00;;;;;;;1.15;1.15;;;;;;;8.93;100.00;98508.25;4167243;28;20266;-50
2023/12/29 01:09:03;;;;;;;1.48;1.38;;;;;;;8.92;100.00;98512.03;4174984;28;20219;-50
2023/12/29 01:11:04;;;;;;;1.25;1.15;;;;;;;8.85;100.00;98510.50;4166875;28;20251;-49
2023/12/29 01:13:06;;;;;;;0.90;0.90;;;;;;;8.79;100.00;98506.00;4167916;28;20212;-50
2023/12/29 01:15:08;;;;;;;1.10;1.10;;;;;;;8.78;100.00;98515.25;4180315;28;20211;-50
2023/12/29 01:17:10;;;;;;;1.10;1.10;;;;;;;8.82;100.00;98511.00;4168591;28;20214;-49
2023/12/29 01:19:12;;;;;;;1.45;1.42;;;;;;;8.87;100.00;98506.47;4170510;28;20358;-50
2023/12/29 01:21:14;;;;;;;1.27;1.17;;;;;;;8.82;100.00;98495.44;4167840;28;20283;-48
2023/12/29 01:23:16;;;;;;;6.65;1.40;;;;;;;8.84;100.00;98495.19;4166222;28;20224;-50
2023/12/29 01:25:17;;;;;;;1.20;1.20;;;;;;;8.82;100.00;98494.63;4165038;28;20205;-50
2023/12/29 01:27:19;;;;;;;1.60;1.45;;;;;;;8.86;100.00;98490.31;4166959;28;20597;-50
2023/12/29 01:29:21;;;;;;;1.73;1.40;;;;;;;8.82;100.00;98486.44;4167133;28;20340;-49
2023/12/29 01:31:23;;;;;;;1.42;1.40;;;;;;;8.79;100.00;98492.34;4168122;28;20204;-49
2023/12/29 01:33:25;;;;;;;1.85;1.75;;;;;;;8.75;100.00;98477.56;4167275;28;20204;-49
2023/12/29 01:35:26;;;;;;;1.30;1.20;;;;;;;8.79;100.00;98478.72;4171373;28;20262;-49
2023/12/29 01:37:28;;;;;;;1.83;1.42;;;;;;;8.87;100.00;98500.16;4168385;28;20661;-49
2023/12/29 01:39:30;;;;;;;0.80;0.80;;;;;;;8.84;100.00;98470.66;4169226;28;20239;-49
2023/12/29 01:41:32;;;;;;;1.23;1.23;;;;;;;8.80;100.00;98469.44;4167941;28;20313;-50
2023/12/29 01:43:33;;;;;;;1.92;1.75;;;;;;;8.76;100.00;98468.28;4170420;28;20208;-48
2023/12/29 01:45:35;;;;;;;1.10;1.10;;;;;;;8.84;100.00;98470.66;4176372;28;20208;-48
2023/12/29 01:47:53;;;;;;;1.13;1.05;;;;;;;8.79;100.00;98463.19;4169711;28;20579;-49
2023/12/29 01:49:55;;;;;;;2.08;1.25;;;;;;;8.77;100.00;98469.94;4149159;28;20232;-50
2023/12/29 01:51:58;;;;;;;1.27;1.27;;;;;;;8.80;100.00;98475.75;4165935;28;20300;-49
2023/12/29 01:54:00;;;;;;;1.33;1.25;;;;;;;8.78;100.00;98482.50;4166577;28;20594;-49
2023/12/29 01:56:01;;;;;;;1.10;1.10;;;;;;;8.72;100.00;98478.84;4197507;28;20715;-50
2023/12/29 01:58:03;;;;;;;1.38;1.27;;;;;;;8.72;100.00;98478.00;4167001;28;20201;-50
2023/12/29 02:00:06;;;;;;;1.02;1.02;;;;;;;8.70;100.00;98485.63;4167535;28;20236;-49
2023/12/29 02:02:08;;;;;;;1.08;1.08;;;;;;;8.74;100.00;98486.81;4150764;28;20217;-50
2023/12/29 02:04:12;;;;;;;1.35;1.25;;;;;;;8.77;100.00;98476.25;4173198;28;20243;-50
2023/12/29 02:06:15;;;;;;;1.13;0.95;;;;;;;8.79;100.00;98479.56;4167469;28;20223;-50
2023/12/29 02:08:17;;;;;;;1.33;1.23;;;;;;;8.76;100.00;98487.38;4154666;28;20644;-50
2023/12/29 02:10:19;;;;;;;1.15;1.15;;;;;;;8.84;100.00;98481.56;4153944;28;20203;-50
2023/12/29 02:12:21;;;;;;;1.10;1.10;;;;;;;8.84;100.00;98487.00;4169220;28;20208;-49
2023/12/29 02:14:23;;;;;;;1.17;1.05;;;;;;;8.80;100.00;98485.81;4167122;28;20204;-49
2023/12/29 02:16:35;;;;;;;1.25;1.15;;;;;;;8.82;100.00;98492.69;4171923;28;20262;-50
2023/12/29 02:18:39;;;;;;;1.58;0.93;;;;;;;8.85;100.00;98480.47;4186376;28;20314;-50
2023/12/29 02:20:43;;;;;;;1.05;1.00;;;;;;;8.86;100.00;98479.41;4154393;28;20670;-51
2023/12/29 02:22:45;;;;;;;0.85;0.85;;;;;;;8.84;100.00;98462.47;4169178;28;20204;-49
2023/12/29 02:24:51;;;;;;;1.45;1.13;;;;;;;8.81;100.00;98471.13;4165226;28;20262;-50
2023/12/29 02:27:03;;;;;;;1.00;0.90;;;;;;;8.85;100.00;98467.69;4168270;28;20215;-50
2023/12/29 02:29:08;;;;;;;9.93;0.98;;;;;;;8.81;100.00;98465.69;4169959;28;20231;-50
2023/12/29 02:31:14;;;;;;;0.95;0.93;;;;;;;8.87;100.00;98481.06;4171706;28;20196;-50
2023/12/29 02:33:22;;;;;;;0.95;0.95;;;;;;;8.91;100.00;98472.19;4175882;28;20216;-49
2023/12/29 02:35:27;;;;;;;1.02;0.93;;;;;;;8.86;100.00;98473.94;4185278;28;20221;-49
2023/12/29 02:37:29;;;;;;;7.82;1.10;;;;;;;8.88;100.00;98467.19;4166099;28;20300;-48
2023/12/29 02:39:31;;;;;;;4.20;1.08;;;;;;;8.84;100.00;98466.03;4155809;28;20224;-50
2023/12/29 02:41:33;;;;;;;1.45;1.35;;;;;;;8.89;100.00;98473.50;4167418;28;20232;-49
2023/12/29 02:43:34;;;;;;;0.85;0.85;;;;;;;8.85;100.00;98472.31;4177595;28;20250;-50
2023/12/29 02:45:36;;;;;;;1.00;1.00;;;;;;;8.88;100.00;98463.66;4177152;28;20208;-49
2023/12/29 02:47:38;;;;;;;0.88;0.88;;;;;;;8.92;100.00;98470.28;4180395;28;20712;-49
2023/12/29 02:49:40;;;;;;;1.75;1.65;;;;;;;8.91;100.00;98460.44;4157634;28;20688;-49
2023/12/29 02:51:42;;;;;;;0.75;0.75;;;;;;;8.84;100.00;98457.00;4171166;28;20201;-50
2023/12/29 02:53:43;;;;;;;2.20;1.10;;;;;;;8.89;100.00;98462.56;4165910;28;20663;-49
2023/12/29 02:55:45;;;;;;;0.90;0.90;;;;;;;8.89;100.00;98455.19;4172406;28;20220;-49
2023/12/29 02:57:48;;;;;;;1.55;0.85;;;;;;;8.91;100.00;98455.81;4171610;28;20808;-49
2023/12/29 02:59:50;;;;;;;2.85;1.08;;;;;;;8.94;100.00;98454.50;4169326;28;20231;-49
2023/12/29 03:01:51;;;;;;;0.93;0.93;;;;;;;8.86;100.00;98454.84;4170105;28;20637;-49
2023/12/29 03:03:53;;;;;;;0.70;0.70;;;;;;;8.90;100.00;98454.13;4175948;28;20250;-49
2023/12/29 03:05:55;;;;;;;0.85;0.85;;;;;;;8.95;100.00;98450.69;4172632;28;20216;-50
2023/12/29 03:07:57;;;;;;;1.10;1.10;;;;;;;8.87;100.00;98454.63;4166040;28;20243;-49
2023/12/29 03:09:59;;;;;;;0.98;0.98;;;;;;;8.89;100.00;98451.66;4170431;28;20227;-49
2023/12/29 03:12:01;;;;;;;1.30;1.08;;;;;;;8.88;100.00;98448.09;4172175;28;20192;-50
2023/12/29 03:14:03;;;;;;;0.98;0.98;;;;;;;8.93;100.00;98461.00;4168375;28;20200;-49
2023/12/29 03:16:05;;;;;;;1.10;1.10;;;;;;;8.89;100.00;98462.56;4167326;28;20242;-49
2023/12/29 03:18:07;;;;;;;0.75;0.75;;;;;;;8.92;100.00;98456.63;4167808;28;20851;-48
2023/12/29 03:20:09;;;;;;;1.20;1.20;;;;;;;8.90;100.00;98469.69;4170409;28;20291;-49
2023/12/29 03:22:11;;;;;;;1.00;1.00;;;;;;;8.93;100.00;98463.75;4170532;28;20229;-49
2023/12/29 03:24:13;;;;;;;0.98;0.98;;;;;;;8.92;100.00;98462.94;4171098;28;20246;-48
2023/12/29 03:26:14;;;;;;;3.75;1.17;;;;;;;8.95;100.00;98462.44;4173040;28;20654;-49
2023/12/29 03:28:16;;;;;;;0.80;0.80;;;;;;;8.94;100.00;98459.97;4171539;28;20254;-48
2023/12/29 03:30:18;;;;;;;0.90;0.90;;;;;;;8.93;100.00;98458.28;4167829;28;20288;-49
2023/12/29 03:32:19;;;;;;;1.63;1.52;;;;;;;8.94;100.00;98449.84;4167337;28;20258;-48
2023/12/29 03:34:21;;;;;;;3.58;1.85;;;;;;;8.92;100.00;98456.63;4165420;28;20212;-48
2023/12/29 03:36:23;;;;;;;0.73;0.73;;;;;;;8.94;100.00;98465.41;4166217;28;20792;-49
2023/12/29 03:38:25;;;;;;;1.13;1.10;;;;;;;8.88;100.00;98460.91;4167797;28;20224;-49
2023/12/29 03:40:26;;;;;;;0.90;0.90;;;;;;;8.90;100.00;98450.59;4177436;28;20195;-49
2023/12/29 03:42:28;;;;;;;0.98;0.98;;;;;;;8.85;100.00;98451.31;4168851;28;20256;-50
2023/12/29 03:44:30;;;;;;;1.13;0.90;;;;;;;8.87;100.00;98448.31;4166254;28;20713;-50
2023/12/29 03:46:32;;;;;;;0.80;0.80;;;;;;;8.83;100.00;98449.91;4167235;28;20232;-50
2023/12/29 03:48:34;;;;;;;0.80;0.80;;;;;;;8.83;100.00;98453.44;4165328;28;20232;-49
2023/12/29 03:50:36;;;;;;;0.95;0.95;;;;;;;8.84;100.00;98449.66;4177161;28;20257;-49
2023/12/29 03:52:38;;;;;;;1.17;1.08;;;;;;;8.86;100.00;98449.41;4168432;28;20299;-49
2023/12/29 03:54:40;;;;;;;0.98;0.98;;;;;;;8.84;100.00;98448.81;4170421;28;20212;-49
2023/12/29 03:56:42;;;;;;;0.80;0.80;;;;;;;8.85;100.00;98450.47;4169983;28;20215;-49
2023/12/29 03:58:47;;;;;;;1.83;1.38;;;;;;;8.83;100.00;98447.16;4177370;28;20251;-50
2023/12/29 04:00:49;;;;;;;0.93;0.93;;;;;;;8.80;100.00;98442.16;4177163;28;20228;-49
2023/12/29 04:02:50;;;;;;;1.48;1.10;;;;;;;8.77;100.00;98437.22;4176889;28;20670;-51
2023/12/29 04:04:52;;;;;;;5.55;0.93;;;;;;;8.76;100.00;98433.63;4172139;28;20223;-50
2023/12/29 04:06:54;;;;;;;1.73;1.63;;;;;;;8.74;100.00;98426.78;4167889;28;20204;-50
2023/12/29 04:08:56;;;;;;;0.80;0.80;;;;;;;8.77;100.00;98420.84;4176506;28;20823;-50
2023/12/29 04:10:57;;;;;;;0.82;0.82;;;;;;;8.82;100.00;98423.69;4178511;28;20275;-50
2023/12/29 04:12:59;;;;;;;0.90;0.90;;;;;;;8.83;100.00;98425.34;4173077;28;20589;-50
2023/12/29 04:15:03;;;;;;;1.08;1.08;;;;;;;8.85;100.00;98428.66;4175955;28;20258;-50
2023/12/29 04:17:13;;;;;;;4.00;2.20;;;;;;;8.84;100.00;98421.53;4166219;28;20681;-50
2023/12/29 04:19:15;;;;;;;1.05;0.95;;;;;;;8.89;100.00;98418.91;4170914;28;20227;-50
2023/12/29 04:21:17;;;;;;;1.13;1.02;;;;;;;8.90;100.00;98417.84;4170827;28;20314;-50
2023/12/29 04:23:19;;;;;;;1.23;0.80;;;;;;;8.90;100.00;98428.75;4173602;28;20257;-50
2023/12/29 04:25:21;;;;;;;1.42;1.33;;;;;;;8.89;100.00;98419.72;4172115;28;20295;-50
2023/12/29 04:27:22;;;;;;;1.15;1.13;;;;;;;8.88;100.00;98422.72;4165349;28;20670;-50
2023/12/29 04:29:24;;;;;;;1.27;1.15;;;;;;;8.86;100.00;98428.41;4165086;28;20224;-49
2023/12/29 04:31:26;;;;;;;1.08;0.95;;;;;;;8.93;100.00;98422.81;4165828;28;20208;-51
2023/12/29 04:33:27;;;;;;;0.90;0.90;;;;;;;8.92;100.00;98423.88;4169663;28;20218;-50
2023/12/29 04:35:29;;;;;;;0.98;0.98;;;;;;;8.91;100.00;98427.69;4166474;28;20212;-50
2023/12/29 04:37:31;;;;;;;1.38;1.27;;;;;;;8.96;100.00;98423.16;4167443;28;20204;-51
2023/12/29 04:39:32;;;;;;;1.27;1.17;;;;;;;8.94;100.00;98416.31;4167065;28;20290;-50
2023/12/29 04:41:35;;;;;;;1.05;0.95;;;;;;;8.92;100.00;98416.53;4168290;28;20709;-50
2023/12/29 04:43:36;;;;;;;0.98;0.98;;;;;;;8.88;100.00;98417.25;4171298;28;20258;-50
2023/12/29 04:45:38;;;;;;;1.13;1.00;;;;;;;8.90;100.00;98426.03;4167932;28;20342;-50
2023/12/29 04:47:40;;;;;;;0.80;0.80;;;;;;;8.88;100.00;98430.91;4167841;28;20868;-51
2023/12/29 04:49:43;;;;;;;1.30;1.15;;;;;;;8.90;100.00;98420.56;4152226;28;20232;-50
2023/12/29 04:51:46;;;;;;;0.73;0.73;;;;;;;8.88;100.00;98418.06;4165127;28;20204;-50
2023/12/29 04:53:48;;;;;;;0.85;0.85;;;;;;;8.90;100.00;98431.50;4166575;28;20220;-50
2023/12/29 04:55:49;;;;;;;1.42;0.90;;;;;;;9.00;100.00;98418.03;4168099;28;20254;-50
2023/12/29 04:57:51;;;;;;;1.27;1.08;;;;;;;8.98;100.00;98422.91;4168404;28;20232;-50
2023/12/29 04:59:53;;;;;;;0.70;0.70;;;;;;;9.05;100.00;98420.88;4166936;28;21080;-52
2023/12/29 05:01:55;;;;;;;7.82;1.67;;;;;;;8.99;100.00;98402.75;4170053;28;20236;-51
2023/12/29 05:03:56;;;;;;;1.15;1.15;;;;;;;9.04;100.00;98411.03;4167774;28;20213;-51
2023/12/29 05:05:58;;;;;;;5.22;1.40;;;;;;;9.00;100.00;98407.13;4165288;28;20212;-50
2023/12/29 05:08:00;;;;;;;1.00;1.00;;;;;;;9.03;100.00;98403.91;4173507;28;20227;-51
2023/12/29 05:10:03;;;;;;;1.55;1.45;;;;;;;8.98;100.00;98412.84;4167103;28;20665;-51
2023/12/29 05:12:05;;;;;;;1.60;1.35;;;;;;;9.00;100.00;98407.97;4167395;28;20200;-51
2023/12/29 05:14:06;;;;;;;2.22;2.13;;;;;;;8.96;100.00;98412.22;4168082;28;20566;-51
2023/12/29 05:16:08;;;;;;;1.50;1.10;;;;;;;9.01;100.00;98411.53;4166005;28;20231;-51
2023/12/29 05:18:10;;;;;;;1.45;1.35;;;;;;;8.99;100.00;98419.13;4147109;28;20228;-50
2023/12/29 05:20:12;;;;;;;0.95;0.95;;;;;;;9.03;100.00;98425.75;4166390;28;20205;-51
2023/12/29 05:22:17;;;;;;;1.65;1.55;;;;;;;8.99;100.00;98427.28;4168962;28;20311;-51
2023/12/29 05:24:19;;;;;;;1.13;1.13;;;;;;;9.04;100.00;98427.41;4166970;28;20641;-50
2023/12/29 05:26:21;;;;;;;1.50;1.40;;;;;;;9.02;100.00;98421.38;4165264;28;20617;-49
2023/12/29 05:28:22;;;;;;;1.10;1.10;;;;;;;8.96;100.00;98414.16;4166396;28;20228;-50
2023/12/29 05:30:26;;;;;;;0.82;0.82;;;;;;;9.00;100.00;98421.59;4165279;28;20795;-49
2023/12/29 05:32:28;;;;;;;1.08;1.08;;;;;;;9.02;100.00;98418.66;4168434;28;20204;-50
2023/12/29 05:34:30;;;;;;;2.60;0.93;;;;;;;8.99;100.00;98419.13;4170063;28;20209;-50
2023/12/29 05:36:35;;;;;;;7.78;0.95;;;;;;;8.94;100.00;98421.75;4165114;28;20204;-51
2023/12/29 05:38:37;;;;;;;1.25;1.15;;;;;;;8.99;100.00;98424.56;4168481;28;20293;-50
2023/12/29 05:40:39;;;;;;;1.00;1.00;;;;;;;9.02;100.00;98414.00;4177915;28;20208;-50
2023/12/29 05:42:41;;;;;;;1.27;1.17;;;;;;;8.97;100.00;98424.00;4171928;28;20228;-50
2023/12/29 05:44:43;;;;;;;1.77;1.67;;;;;;;9.01;100.00;98420.53;4171614;28;20252;-51
2023/12/29 05:46:48;;;;;;;2.72;1.00;;;;;;;9.02;100.00;98413.19;4172460;28;20658;-49
2023/12/29 05:48:52;;;;;;;0.98;0.90;;;;;;;9.01;100.00;98417.00;4169405;28;20236;-51
2023/12/29 05:50:54;;;;;;;1.20;1.00;;;;;;;8.97;100.00;98430.28;4180704;28;20234;-50
2023/12/29 05:52:55;;;;;;;1.02;1.00;;;;;;;9.02;100.00;98419.47;4172278;28;22584;-51
2023/12/29 05:54:57;;;;;;;0.98;0.98;;;;;;;9.05;100.00;98429.06;4173296;28;20209;-51
2023/12/29 05:56:59;;;;;;;1.05;1.05;;;;;;;9.05;100.00;98431.78;4179638;28;20247;-50
2023/12/29 05:59:00;;;;;;;0.90;0.90;;;;;;;8.99;100.00;98436.31;4169487;28;20233;-51
2023/12/29 06:01:02;;;;;;;0.93;0.93;;;;;;;9.03;100.00;98425.75;4171339;28;20213;-50
2023/12/29 06:03:04;;;;;;;1.02;1.02;;;;;;;9.04;100.00;98439.16;4153137;28;20236;-51
2023/12/29 06:05:06;;;;;;;0.80;0.80;;;;;;;9.00;100.00;98420.75;4174728;28;20220;-50
2023/12/29 06:07:09;;;;;;;0.80;0.80;;;;;;;9.00;100.00;98427.06;4177665;28;20554;-48
2023/12/29 06:09:10;;;;;;;1.20;1.10;;;;;;;8.99;100.00;98424.56;4170360;28;20231;-49
2023/12/29 06:11:16;;;;;;;1.25;1.25;;;;;;;9.06;100.00;98414.34;4172053;28;20201;-48
2023/12/29 06:13:18;;;;;;;1.13;0.80;;;;;;;9.03;100.00;98414.84;4169810;28;20215;-49
2023/12/29 06:15:20;;;;;;;1.40;0.80;;;;;;;9.02;100.00;98422.19;4170722;28;20213;-50
2023/12/29 06:17:22;;;;;;;1.45;0.90;;;;;;;9.03;100.00;98426.56;4168635;28;20220;-49
2023/12/29 06:19:23;;;;;;;1.13;1.08;;;;;;;9.02;100.00;98419.47;4166898;28;20227;-51
2023/12/29 06:21:25;;;;;;;0.70;0.70;;;;;;;9.05;100.00;98434.53;4169801;28;20209;-50
2023/12/29 06:23:27;;;;;;;1.00;0.95;;;;;;;9.00;100.00;98428.94;4172986;28;20208;-49
2023/12/29 06:25:28;;;;;;;1.10;1.10;;;;;;;9.01;100.00;98434.19;4173208;28;20208;-49
2023/12/29 06:27:32;;;;;;;1.02;0.98;;;;;;;9.00;100.00;98423.50;4167392;28;20728;-50
2023/12/29 06:29:34;;;;;;;1.10;1.10;;;;;;;9.01;100.00;98427.91;4169025;28;20350;-49
2023/12/29 06:31:35;;;;;;;1.00;1.00;;;;;;;9.02;100.00;98424.91;4171943;28;20216;-49
2023/12/29 06:33:41;;;;;;;1.17;1.13;;;;;;;9.00;100.00;98418.03;4171457;28;20307;-50
2023/12/29 06:35:43;;;;;;;0.80;0.80;;;;;;;8.99;100.00;98414.50;4177254;28;20211;-51
2023/12/29 06:37:45;;;;;;;1.33;1.33;;;;;;;9.02;100.00;98415.91;4175071;28;20216;-49
2023/12/29 06:39:46;;;;;;;0.80;0.80;;;;;;;9.00;100.00;98421.59;4177480;28;21143;-50
2023/12/29 06:41:48;;;;;;;1.35;1.27;;;;;;;8.99;100.00;98414.50;4178010;28;20326;-49
2023/12/29 06:43:50;;;;;;;0.85;0.85;;;;;;;8.99;100.00;98424.56;4173107;28;20220;-50
2023/12/29 06:45:52;;;;;;;1.20;1.15;;;;;;;8.98;100.00;98428.38;4178178;28;20678;-50
2023/12/29 06:47:53;;;;;;;6.53;1.45;;;;;;;9.00;100.00;98418.88;4167632;28;20240;-51
2023/12/29 06:49:57;;;;;;;1.20;1.10;;;;;;;9.03;100.00;98423.03;4169123;28;20264;-50
2023/12/29 06:51:58;;;;;;;1.27;1.27;;;;;;;9.02;100.00;98418.66;4176919;28;20204;-50
2023/12/29 06:54:00;;;;;;;1.33;1.23;;;;;;;9.01;100.00;98417.00;4160498;28;20255;-49
2023/12/29 06:56:02;;;;;;;1.42;1.33;;;;;;;9.00;100.00;98413.41;4178596;28;20559;-50
2023/12/29 06:58:07;;;;;;;1.50;1.13;;;;;;;9.01;100.00;98417.81;4172349;28;20229;-50
2023/12/29 07:00:09;;;;;;;1.65;1.38;;;;;;;8.98;100.00;98423.75;4166899;28;20613;-50
2023/12/29 07:02:11;;;;;;;0.90;0.90;;;;;;;8.91;100.00;98423.06;4169203;28;20224;-49
2023/12/29 07:04:14;;;;;;;1.25;1.25;;;;;;;8.91;100.00;98414.88;4173970;28;20243;-49
2023/12/29 07:06:15;;;;;;;1.25;1.15;;;;;;;8.94;100.00;98417.13;4169990;28;20244;-49
2023/12/29 07:08:17;;;;;;;0.90;0.90;;;;;;;8.92;100.00;98416.53;4170504;28;20270;-51
2023/12/29 07:10:19;;;;;;;0.80;0.80;;;;;;;8.94;100.00;98421.75;4172541;28;20264;-50
2023/12/29 07:12:21;;;;;;;1.60;1.08;;;;;;;8.92;100.00;98412.97;4171265;28;20209;-49
2023/12/29 07:14:22;;;;;;;0.80;0.80;;;;;;;8.91;100.00;98416.78;4183138;28;20266;-49
2023/12/29 07:16:24;;;;;;;0.90;0.90;;;;;;;8.92;100.00;98423.88;4172043;28;20238;-49
2023/12/29 07:18:26;;;;;;;0.77;0.77;;;;;;;8.96;100.00;98416.88;4169905;28;20228;-50
2023/12/29 07:20:28;;;;;;;0.90;0.90;;;;;;;8.93;100.00;98414.63;4171015;28;20236;-50
2023/12/29 07:22:30;;;;;;;1.75;1.27;;;;;;;8.91;100.00;98420.34;4168324;28;20216;-48
2023/12/29 07:24:33;;;;;;;0.90;0.90;;;;;;;8.93;100.00;98420.06;4170822;28;20752;-49
2023/12/29 07:26:34;;;;;;;0.80;0.80;;;;;;;8.93;100.00;98422.81;4169816;28;20248;-49
2023/12/29 07:28:39;;;;;;;1.15;1.15;;;;;;;8.95;100.00;98428.88;4161442;28;20278;-50
2023/12/29 07:30:41;;;;;;;1.33;1.33;;;;;;;8.93;100.00;98431.00;4149965;28;20206;-49
2023/12/29 07:32:42;;;;;;;6.90;1.00;;;;;;;8.98;100.00;98425.66;4173926;28;20223;-50
2023/12/29 07:34:44;;;;;;;1.20;1.17;;;;;;;8.96;100.00;98425.06;4167315;28;20208;-50
2023/12/29 07:36:47;;;;;;;0.82;0.82;;;;;;;9.00;100.00;98426.22;4171240;28;20291;-50
2023/12/29 07:38:48;;;;;;;1.33;1.23;;;;;;;8.97;100.00;98429.44;4169487;28;20267;-50
2023/12/29 07:40:50;;;;;;;13.85;1.25;;;;;;;9.01;100.00;98427.91;4170198;28;20625;-49
2023/12/29 07:42:52;;;;;;;1.63;0.98;;;;;;;8.95;100.00;98434.34;4170156;28;20751;-50
2023/12/29 07:44:56;;;;;;;1.30;1.30;;;;;;;8.99;100.00;98424.56;4177767;28;20685;-50
2023/12/29 07:46:58;;;;;;;0.82;0.82;;;;;;;8.99;100.00;98416.38;4166897;28;20789;-50
2023/12/29 07:48:59;;;;;;;0.73;0.73;;;;;;;8.97;100.00;98424.00;4170510;28;20305;-49
2023/12/29 07:51:05;;;;;;;1.42;0.65;;;;;;;8.99;100.00;98419.13;4177093;28;20216;-50
2023/12/29 07:53:06;;;;;;;1.20;0.70;;;;;;;9.02;100.00;98422.19;4167953;28;20196;-50
2023/12/29 07:55:08;;;;;;;0.70;0.70;;;;;;;9.01;100.00;98425.19;4176788;28;20234;-49
2023/12/29 07:57:10;;;;;;;0.70;0.70;;;;;;;9.02;100.00;98426.84;4168841;28;20251;-48
2023/12/29 07:59:11;;;;;;;0.90;0.90;;;;;;;9.05;100.00;98426.34;4168928;28;20231;-50
2023/12/29 08:01:13;;;;;;;0.95;0.95;;;;;;;9.02;100.00;98432.28;4165757;28;20943;-50
2023/12/29 08:03:16;;;;;;;1.52;1.42;;;;;;;9.05;100.00;98426.34;4168669;28;20243;-50
2023/12/29 08:05:18;;;;;;;1.13;1.13;;;;;;;9.07;100.00;98432.38;4168528;28;20223;-49
2023/12/29 08:07:20;;;;;;;2.53;0.88;;;;;;;9.07;100.00;98421.44;4169785;28;20581;-49
2023/12/29 08:09:21;;;;;;;0.70;0.70;;;;;;;9.06;100.00;98425.25;4169017;28;20234;-48
2023/12/29 08:11:23;;;;;;;0.70;0.70;;;;;;;9.03;100.00;98431.22;4169293;28;20243;-49
2023/12/29 08:13:25;;;;;;;0.68;0.68;;;;;;;9.02;100.00;98435.03;4171831;28;20661;-49
2023/12/29 08:15:30;;;;;;;1.35;0.93;;;;;;;9.06;100.00;98433.44;4168819;28;20234;-49
2023/12/29 08:17:32;;;;;;;2.15;0.90;;;;;;;9.01;100.00;98428.72;4175713;28;20211;-49
2023/12/29 08:19:33;;;;;;;0.95;0.95;;;;;;;9.10;100.00;98437.34;4172367;28;20274;-50
2023/12/29 08:21:36;;;;;;;2.67;1.85;;;;;;;9.12;100.00;98427.03;4171316;28;20205;-50
2023/12/29 08:23:38;;;;;;;0.75;0.75;;;;;;;9.15;100.00;98434.75;4176225;28;20238;-49
2023/12/29 08:25:40;;;;;;;0.68;0.68;;;;;;;9.17;100.00;98438.88;4175500;28;20259;-50
2023/12/29 08:27:41;;;;;;;2.10;2.00;;;;;;;9.15;100.00;98445.66;4170424;28;20212;-50
2023/12/29 08:29:43;;;;;;;0.80;0.80;;;;;;;9.20;100.00;98427.47;4150635;28;20227;-49
2023/12/29 08:31:45;;;;;;;1.88;1.10;;;;;;;9.21;100.00;98444.69;4168213;28;20243;-50
2023/12/29 08:33:47;;;;;;;0.80;0.80;;;;;;;9.21;100.00;98439.22;4170276;28;20215;-51
2023/12/29 08:35:49;;;;;;;0.80;0.80;;;;;;;9.22;100.00;98447.16;4167951;28;20232;-49
2023/12/29 08:37:51;;;;;;;0.95;0.95;;;;;;;9.25;100.00;98434.91;4169560;28;21132;-50
2023/12/29 08:39:53;;;;;;;2.08;1.08;;;;;;;9.24;100.00;98438.72;4165733;28;20235;-50
2023/12/29 08:41:54;;;;;;;1.08;0.82;;;;;;;9.21;100.00;98439.22;4170598;28;20212;-51
2023/12/29 08:43:56;;;;;;;0.90;0.90;;;;;;;9.24;100.00;98444.19;4176404;28;20203;-50
2023/12/29 08:45:58;;;;;;;4.18;0.80;;;;;;;9.24;100.00;98433.25;4166733;28;20228;-50
2023/12/29 08:47:59;;;;;;;1.05;1.05;;;;;;;9.26;100.00;98445.59;4197752;28;20208;-49
2023/12/29 08:50:02;;;;;;;0.80;0.80;;;;;;;9.30;100.00;98438.59;4165967;28;20282;-49
2023/12/29 08:52:04;;;;;;;0.70;0.70;;;;;;;9.31;100.00;98434.78;4166670;28;20209;-51
2023/12/29 08:54:06;;;;;;;0.88;0.88;;;;;;;9.34;100.00;98433.47;4177209;28;20254;-51
2023/12/29 08:56:09;;;;;;;0.88;0.88;;;;;;;9.35;100.00;98432.41;4166270;28;20209;-49
2023/12/29 08:58:12;;;;;;;0.85;0.85;;;;;;;9.37;100.00;98427.50;4168561;28;20664;-50
2023/12/29 09:00:14;;;;;;;0.75;0.68;;;;;;;9.40;100.00;98443.41;4169969;28;20220;-50
2023/12/29 09:02:16;;;;;;;0.77;0.77;;;;;;;9.36;100.00;98442.25;4168536;28;20688;-50
2023/12/29 09:04:18;;;;;;;0.80;0.80;;;;;;;9.40;100.00;98432.47;4166336;28;20214;-49
2023/12/29 09:06:20;;;;;;;0.93;0.93;;;;;;;9.39;100.00;98430.81;4167716;28;20308;-49
2023/12/29 09:08:21;;;;;;;0.70;0.70;;;;;;;9.37;100.00;98433.81;4175212;28;20220;-49
2023/12/29 09:10:23;;;;;;;0.70;0.70;;;;;;;9.40;100.00;98437.94;4168524;28;20209;-50
2023/12/29 09:12:25;;;;;;;0.70;0.70;;;;;;;9.42;100.00;98435.81;4155513;28;20246;-50
2023/12/29 09:14:29;;;;;;;1.33;1.33;;;;;;;9.43;100.00;98427.34;4174629;28;20216;-49
2023/12/29 09:16:31;;;;;;;1.17;1.17;;;;;;;9.42;100.00;98441.28;4171032;28;20896;-51
2023/12/29 09:18:33;;;;;;;0.80;0.80;;;;;;;9.46;100.00;98428.78;4170717;28;20233;-49
2023/12/29 09:20:37;;;;;;;0.80;0.80;;;;;;;9.47;100.00;98438.63;4171863;28;20203;-48
2023/12/29 09:22:39;;;;;;;0.65;0.65;;;;;;;9.44;100.00;98433.66;4170450;28;20690;-49
2023/12/29 09:24:42;;;;;;;0.93;0.93;;;;;;;9.42;100.00;98430.34;4179088;28;20711;-50
2023/12/29 09:26:44;;;;;;;0.70;0.70;;;;;;;9.40;100.00;98433.31;4170408;28;20205;-49
2023/12/29 09:28:46;;;;;;;0.95;0.95;;;;;;;9.43;100.00;98432.00;4169826;28;20747;-49
2023/12/29 09:30:48;;;;;;;0.80;0.80;;;;;;;9.49;100.00;98428.28;4180552;28;20216;-50
2023/12/29 09:32:50;;;;;;;1.40;0.98;;;;;;;9.47;100.00;98441.34;4170205;28;20258;-50
2023/12/29 09:34:51;;;;;;;3.13;0.90;;;;;;;9.51;100.00;98434.34;4171469;28;20724;-49
2023/12/29 09:36:53;;;;;;;1.02;1.02;;;;;;;9.51;100.00;98434.34;4169551;28;20217;-50